Alessandro F — IBVQ — position and weather

sailwx.info

Track history (hours):
 
Tides and Currents Weather Stations Pressure Air Temp Water Temp Dewpoint Dewpoint Depression Visibility Wind Speed Wind Dir Waves Ship Positions

Alessandro F

Last reported at 2016-Sep-19 14:08 UTC. Time now 2016-Oct-01 22:25 UTC.
Position N 44°30' E 014°08'.
Warning: this ship's position is 12 days out of date.

Length 100 m; draft 4.9 m.

Type: Tanker. MMSI: 247046400.

Date/timePositionNaut miles runAvg speedWind from/ knotsBaromVisibWave heightAir tempDewpointWater temp
2016-Sep-19 14:08N 44°30' E 014°08'63812.8
2016-Sep-17 12:16N 36°24' E 023°12'2313.6
2016-Sep-17 10:33N 36°43' E 023°28'1413.7
2016-Sep-17 09:34N 36°55' E 023°38'1313.5
2016-Sep-17 08:34N 37°04' E 023°50'  
2016-Sep-15 04:32N 37°57' E 023°35'0 0.0
2016-Sep-15 03:33N 37°57' E 023°35'0 0.0
2016-Sep-15 01:33N 37°57' E 023°35'0 0.0
2016-Sep-14 22:33N 37°57' E 023°35'0 0.0
2016-Sep-14 21:33N 37°57' E 023°35'0 0.0
2016-Sep-14 17:33N 37°57' E 023°35'0 0.0
2016-Sep-14 16:33N 37°57' E 023°35'0 0.0
2016-Sep-14 13:33N 37°57' E 023°35'0 0.0
2016-Sep-14 12:33N 37°57' E 023°35'0 0.0
2016-Sep-14 10:33N 37°57' E 023°35'0 0.0
2016-Sep-14 09:33N 37°57' E 023°35'0 0.0
2016-Sep-14 08:33N 37°57' E 023°35'0 0.0
2016-Sep-14 07:33N 37°57' E 023°35'0 0.0
2016-Sep-14 06:33N 37°57' E 023°35'17 5.6
2016-Sep-14 03:33N 37°42' E 023°44'466 9.7
2016-Sep-12 03:33N 36°50' E 014°02'23512.1
2016-Sep-11 08:08N 38°24' E 009°30'31113.1
2016-Sep-10 08:22N 40°27' E 003°20'1012.6
2016-Sep-10 07:34N 40°30' E 003°08'1211.8
2016-Sep-10 06:34N 40°34' E 002°53'1211.9
2016-Sep-10 05:34N 40°39' E 002°39'1211.7
2016-Sep-10 04:33N 40°43' E 002°24'1212.2
2016-Sep-10 03:34N 40°47' E 002°09'1312.7
2016-Sep-10 02:34N 40°52' E 001°54'  
Track history (hours):
 
Tides and Currents Weather Stations Pressure Air Temp Water Temp Dewpoint Dewpoint Depression Visibility Wind Speed Wind Dir Waves Ship Positions

Alessandro F

Last reported at 2016-Sep-19 14:08 UTC. Time now 2016-Oct-01 22:25 UTC.
Position N 44°30' E 014°08'.
Warning: this ship's position is 12 days out of date.

Length 100 m; draft 4.9 m.

Type: Tanker. MMSI: 247046400.

Date/timePositionNaut miles runAvg speedWind from/ knotsBaromVisibWave heightAir tempDewpointWater temp
2016-Sep-19 14:08N 44°30' E 014°08'63812.8
2016-Sep-17 12:16N 36°24' E 023°12'2313.6
2016-Sep-17 10:33N 36°43' E 023°28'1413.7
2016-Sep-17 09:34N 36°55' E 023°38'1313.5
2016-Sep-17 08:34N 37°04' E 023°50'  
2016-Sep-15 04:32N 37°57' E 023°35'0 0.0
2016-Sep-15 03:33N 37°57' E 023°35'0 0.0
2016-Sep-15 01:33N 37°57' E 023°35'0 0.0
2016-Sep-14 22:33N 37°57' E 023°35'0 0.0
2016-Sep-14 21:33N 37°57' E 023°35'0 0.0
2016-Sep-14 17:33N 37°57' E 023°35'0 0.0
2016-Sep-14 16:33N 37°57' E 023°35'0 0.0
2016-Sep-14 13:33N 37°57' E 023°35'0 0.0
2016-Sep-14 12:33N 37°57' E 023°35'0 0.0
2016-Sep-14 10:33N 37°57' E 023°35'0 0.0
2016-Sep-14 09:33N 37°57' E 023°35'0 0.0
2016-Sep-14 08:33N 37°57' E 023°35'0 0.0
2016-Sep-14 07:33N 37°57' E 023°35'0 0.0
2016-Sep-14 06:33N 37°57' E 023°35'17 5.6
2016-Sep-14 03:33N 37°42' E 023°44'466 9.7
2016-Sep-12 03:33N 36°50' E 014°02'23512.1
2016-Sep-11 08:08N 38°24' E 009°30'31113.1
2016-Sep-10 08:22N 40°27' E 003°20'1012.6
2016-Sep-10 07:34N 40°30' E 003°08'1211.8
2016-Sep-10 06:34N 40°34' E 002°53'1211.9
2016-Sep-10 05:34N 40°39' E 002°39'1211.7
2016-Sep-10 04:33N 40°43' E 002°24'1212.2
2016-Sep-10 03:34N 40°47' E 002°09'1312.7
2016-Sep-10 02:34N 40°52' E 001°54'  

Dump ship's entire track history